Time;durP1;ratioP1;P1;durP2;ratioP2;P2;SDS_P1;SDS_P2;PMS_P1;PMS_P2;Temp;Humidity;BMP_temperature;BMP_pressure;BME280_temperature;BME280_humidity;BME280_pressure;Samples;Min_cycle;Max_cycle;Signal;HPM_P1;HPM_P2
2023/04/24 00:01:08;;;;;;;;;18.00;17.00;21.90;40.10;;;;;;110007;1256;55250;-58
2023/04/24 00:03:36;;;;;;;;;22.50;21.00;21.90;40.10;;;;;;110000;1252;53982;-57
2023/04/24 00:06:05;;;;;;;;;19.00;18.00;21.90;40.10;;;;;;110093;1252;49352;-59
2023/04/24 00:08:32;;;;;;;;;22.00;20.50;21.90;40.20;;;;;;110128;1252;49987;-58
2023/04/24 00:10:59;;;;;;;;;23.50;21.00;21.90;40.10;;;;;;110058;1252;46311;-58
2023/04/24 00:13:28;;;;;;;;;21.00;20.00;21.90;40.10;;;;;;110058;1257;55616;-58
2023/04/24 00:15:55;;;;;;;;;22.00;21.00;21.90;40.30;;;;;;110031;1252;53725;-58
2023/04/24 00:18:22;;;;;;;;;23.00;22.00;21.90;40.20;;;;;;109978;1256;49411;-57
2023/04/24 00:20:49;;;;;;;;;22.50;21.00;21.90;40.70;;;;;;110027;1255;50320;-59
2023/04/24 00:23:16;;;;;;;;;21.67;20.00;21.90;40.10;;;;;;109935;1257;45238;-59
2023/04/24 00:25:43;;;;;;;;;23.00;21.00;21.90;40.40;;;;;;110113;1252;56855;-58
2023/04/24 00:28:10;;;;;;;;;20.00;18.00;21.90;40.20;;;;;;110078;1252;53744;-58
2023/04/24 00:30:37;;;;;;;;;22.00;21.00;21.90;40.30;;;;;;110045;1256;49572;-58
2023/04/24 00:33:04;;;;;;;;;22.50;19.50;21.80;40.10;;;;;;109935;1256;49309;-58
2023/04/24 00:35:30;;;;;;;;;21.00;20.00;21.80;40.10;;;;;;110047;1254;46802;-56
2023/04/24 00:37:57;;;;;;;;;20.50;20.00;21.80;40.20;;;;;;110035;1256;55436;-57
2023/04/24 00:40:24;;;;;;;;;18.50;17.50;21.80;40.10;;;;;;109972;1257;54607;-61
2023/04/24 00:42:51;;;;;;;;;23.50;21.00;21.80;40.10;;;;;;109970;1252;50064;-58
2023/04/24 00:45:19;;;;;;;;;22.00;21.00;21.80;40.20;;;;;;109973;1252;50412;-58
2023/04/24 00:47:46;;;;;;;;;22.00;21.00;21.80;40.20;;;;;;110020;1257;45352;-58
2023/04/24 00:50:15;;;;;;;;;22.50;20.50;21.80;40.60;;;;;;110034;1256;55882;-59
2023/04/24 00:52:42;;;;;;;;;21.00;20.00;21.80;40.20;;;;;;109969;1256;53675;-58
2023/04/24 00:55:09;;;;;;;;;24.00;22.00;21.80;40.20;;;;;;110000;1252;49712;-58
2023/04/24 00:57:37;;;;;;;;;23.00;21.00;21.80;40.20;;;;;;109971;1257;49287;-59
2023/04/24 01:00:11;;;;;;;;;22.00;20.67;21.80;40.20;;;;;;109959;1253;45614;-57
2023/04/24 01:02:44;;;;;;;;;20.00;19.00;21.80;40.20;;;;;;110029;1256;55605;-58
2023/04/24 01:05:13;;;;;;;;;19.00;18.00;21.80;40.40;;;;;;109992;1254;53951;-58
2023/04/24 01:07:43;;;;;;;;;23.50;22.00;21.80;40.40;;;;;;109985;1257;49545;-59
2023/04/24 01:10:11;;;;;;;;;22.50;20.50;21.80;40.20;;;;;;110047;1255;49857;-59
2023/04/24 01:12:38;;;;;;;;;19.00;18.00;21.80;40.20;;;;;;110051;1256;45908;-58
2023/04/24 01:15:06;;;;;;;;;23.00;21.50;21.80;40.20;;;;;;109923;1254;55670;-58
2023/04/24 01:17:33;;;;;;;;;25.00;20.50;21.70;40.30;;;;;;109988;1255;54217;-59
2023/04/24 01:20:02;;;;;;;;;22.00;19.00;21.70;40.10;;;;;;110009;1254;49023;-58
2023/04/24 01:22:29;;;;;;;;;22.00;21.00;21.70;40.30;;;;;;109964;1252;48987;-57
2023/04/24 01:24:56;;;;;;;;;19.00;18.00;21.70;40.20;;;;;;110036;1252;45189;-59
2023/04/24 01:27:23;;;;;;;;;22.00;19.50;21.70;40.20;;;;;;110018;1252;55052;-59
2023/04/24 01:29:51;;;;;;;;;23.50;20.50;21.70;40.40;;;;;;109991;1257;54009;-59
2023/04/24 01:32:18;;;;;;;;;23.67;20.00;21.70;40.20;;;;;;110014;1254;49960;-59
2023/04/24 01:34:46;;;;;;;;;21.00;20.00;21.70;40.20;;;;;;110019;1252;49768;-57
2023/04/24 01:37:13;;;;;;;;;22.50;21.00;21.70;39.80;;;;;;109957;1252;46561;-58
2023/04/24 01:39:40;;;;;;;;;23.00;21.00;21.70;40.20;;;;;;110074;1252;55949;-58
2023/04/24 01:42:07;;;;;;;;;25.00;21.00;21.70;40.20;;;;;;110071;1255;53627;-58
2023/04/24 01:44:34;;;;;;;;;22.00;19.00;21.60;40.10;;;;;;110005;1252;49018;-58
2023/04/24 01:47:01;;;;;;;;;23.00;21.00;21.60;40.20;;;;;;110053;1257;48992;-57
2023/04/24 01:49:29;;;;;;;;;26.00;22.00;21.60;40.20;;;;;;109988;1252;45299;-58
2023/04/24 01:51:55;;;;;;;;;21.00;19.50;21.60;40.20;;;;;;109946;1252;55688;-58
2023/04/24 01:54:22;;;;;;;;;21.00;20.00;21.60;40.20;;;;;;109967;1257;54160;-59
2023/04/24 01:56:49;;;;;;;;;23.50;20.50;21.60;40.20;;;;;;110025;1255;48999;-60
2023/04/24 01:59:17;;;;;;;;;20.50;19.00;21.60;40.20;;;;;;109934;1256;50293;-58
2023/04/24 02:01:44;;;;;;;;;23.50;22.00;21.60;40.20;;;;;;110025;1255;47211;-58
2023/04/24 02:04:11;;;;;;;;;25.00;20.00;21.60;40.20;;;;;;110057;1256;55650;-57
2023/04/24 02:06:38;;;;;;;;;22.00;18.00;21.60;40.40;;;;;;109886;1257;54285;-58
2023/04/24 02:09:05;;;;;;;;;24.50;22.50;21.60;40.20;;;;;;110026;1253;49644;-57
2023/04/24 02:11:32;;;;;;;;;22.50;20.50;21.60;40.20;;;;;;110100;1256;49798;-58
2023/04/24 02:13:59;;;;;;;;;21.50;20.00;21.60;40.20;;;;;;110091;1253;45165;-58
2023/04/24 02:16:26;;;;;;;;;24.50;21.00;21.60;40.40;;;;;;110106;1257;55051;-58
2023/04/24 02:18:53;;;;;;;;;26.00;21.50;21.60;40.40;;;;;;110060;1257;53421;-58
2023/04/24 02:21:20;;;;;;;;;19.50;18.50;21.60;40.20;;;;;;110109;1252;50342;-57
2023/04/24 02:23:47;;;;;;;;;25.50;23.50;21.50;40.20;;;;;;110111;1254;49613;-57
2023/04/24 02:26:13;;;;;;;;;23.50;21.50;21.50;39.90;;;;;;109939;1252;45622;-57
2023/04/24 02:28:40;;;;;;;;;25.33;22.67;21.50;40.80;;;;;;110044;1252;55840;-58
2023/04/24 02:31:07;;;;;;;;;23.00;19.00;21.50;40.20;;;;;;110013;1252;54369;-57
2023/04/24 02:33:35;;;;;;;;;27.00;22.00;21.50;40.20;;;;;;109946;1252;50832;-57
2023/04/24 02:36:02;;;;;;;;;21.33;19.67;21.50;40.20;;;;;;109949;1257;48936;-58
2023/04/24 02:38:29;;;;;;;;;23.67;22.33;21.50;40.30;;;;;;109913;1252;46003;-58
2023/04/24 02:40:56;;;;;;;;;24.00;20.50;21.50;40.40;;;;;;109900;1252;56372;-58
2023/04/24 02:43:23;;;;;;;;;19.00;18.00;21.50;40.20;;;;;;109971;1252;53677;-61
2023/04/24 02:45:50;;;;;;;;;20.50;19.00;21.50;40.40;;;;;;110438;1252;49821;-58
2023/04/24 02:48:17;;;;;;;;;20.50;19.00;21.50;40.30;;;;;;109980;1258;49781;-58
2023/04/24 02:50:44;;;;;;;;;24.00;21.00;21.50;40.40;;;;;;110072;1254;45539;-58
2023/04/24 02:53:11;;;;;;;;;25.00;23.00;21.50;40.20;;;;;;110006;1252;55592;-59
2023/04/24 02:55:38;;;;;;;;;20.00;19.00;21.40;40.30;;;;;;110115;1257;54107;-58
2023/04/24 02:58:05;;;;;;;;;21.00;19.00;21.40;40.10;;;;;;110140;1255;49754;-57
2023/04/24 03:00:33;;;;;;;;;20.00;19.00;21.50;40.40;;;;;;110120;1257;50048;-58
2023/04/24 03:03:00;;;;;;;;;20.67;18.00;21.40;40.10;;;;;;110134;1252;46790;-58
2023/04/24 03:05:27;;;;;;;;;24.50;22.00;21.40;40.10;;;;;;110057;1256;56365;-58
2023/04/24 03:07:54;;;;;;;;;23.00;20.50;21.40;40.20;;;;;;109995;1252;54639;-57
2023/04/24 03:10:24;;;;;;;;;24.00;22.00;21.40;40.70;;;;;;110005;1253;49478;-59
2023/04/24 03:12:51;;;;;;;;;20.00;19.00;21.40;40.20;;;;;;110000;1252;49364;-60
2023/04/24 03:15:18;;;;;;;;;18.00;16.67;21.30;40.10;;;;;;110091;1256;45217;-58
2023/04/24 03:17:45;;;;;;;;;21.00;20.00;21.40;40.20;;;;;;110056;1255;55117;-57
2023/04/24 03:20:13;;;;;;;;;22.00;20.00;21.40;40.20;;;;;;110100;1253;54001;-59
2023/04/24 03:22:40;;;;;;;;;20.00;18.00;21.40;40.70;;;;;;110089;1256;50112;-59
2023/04/24 03:25:09;;;;;;;;;22.00;19.00;21.40;40.20;;;;;;110067;1253;48926;-58
2023/04/24 03:27:36;;;;;;;;;24.00;21.00;21.30;40.10;;;;;;110086;1252;46131;-59
2023/04/24 03:30:03;;;;;;;;;21.00;19.67;21.30;40.10;;;;;;110085;1256;55188;-58
2023/04/24 03:32:32;;;;;;;;;22.00;19.00;21.30;40.10;;;;;;110029;1252;54850;-57
2023/04/24 03:34:59;;;;;;;;;22.50;21.00;21.30;40.10;;;;;;109939;1257;50532;-58
2023/04/24 03:37:26;;;;;;;;;21.67;18.67;21.30;40.20;;;;;;109939;1257;50054;-58
2023/04/24 03:39:54;;;;;;;;;21.00;19.00;21.30;40.20;;;;;;109940;1256;45597;-58
2023/04/24 03:42:21;;;;;;;;;20.00;18.00;21.30;40.20;;;;;;109960;1257;56353;-58
2023/04/24 03:44:48;;;;;;;;;21.00;19.00;21.30;40.20;;;;;;109956;1252;54435;-57
2023/04/24 03:47:15;;;;;;;;;21.00;19.50;21.30;40.20;;;;;;109924;1251;49159;-58
2023/04/24 03:49:42;;;;;;;;;24.00;21.50;21.30;40.20;;;;;;109974;1254;50133;-59
2023/04/24 03:52:08;;;;;;;;;20.50;19.00;21.30;40.20;;;;;;110070;1256;45573;-59
2023/04/24 03:54:35;;;;;;;;;22.00;18.00;21.30;40.40;;;;;;110063;1256;56069;-59
2023/04/24 03:57:04;;;;;;;;;20.00;18.00;21.30;40.40;;;;;;109916;1256;53242;-58
2023/04/24 03:59:31;;;;;;;;;20.33;19.00;21.30;40.40;;;;;;109917;1255;50572;-58
2023/04/24 04:01:58;;;;;;;;;22.67;19.67;21.30;40.20;;;;;;110061;1254;49174;-57
2023/04/24 04:04:25;;;;;;;;;20.00;19.00;21.30;40.20;;;;;;110035;1252;45522;-58
2023/04/24 04:06:53;;;;;;;;;21.33;20.33;21.20;40.10;;;;;;110070;1252;55859;-57
2023/04/24 04:09:20;;;;;;;;;23.00;22.00;21.20;40.10;;;;;;109852;1255;53555;-58
2023/04/24 04:11:47;;;;;;;;;20.00;19.00;21.20;40.10;;;;;;109994;1253;49502;-58
2023/04/24 04:14:13;;;;;;;;;21.00;20.00;21.20;40.30;;;;;;109947;1257;49831;-57
2023/04/24 04:16:41;;;;;;;;;23.00;21.00;21.20;40.20;;;;;;110019;1252;45304;-58
2023/04/24 04:19:07;;;;;;;;;20.00;19.00;21.20;40.10;;;;;;109904;1257;55140;-57
2023/04/24 04:21:34;;;;;;;;;20.00;18.00;21.20;40.10;;;;;;109901;1257;54297;-58
2023/04/24 04:24:01;;;;;;;;;20.00;19.00;21.20;40.10;;;;;;109946;1256;49060;-59
2023/04/24 04:26:31;;;;;;;;;20.00;19.00;21.20;40.30;;;;;;109882;1257;49521;-57
2023/04/24 04:29:00;;;;;;;;;22.67;21.67;21.20;40.10;;;;;;109928;1257;45599;-58
2023/04/24 04:31:27;;;;;;;;;21.00;19.67;21.20;40.30;;;;;;109930;1257;55205;-59
2023/04/24 04:33:54;;;;;;;;;22.00;18.50;21.20;40.10;;;;;;109933;1254;54744;-57
2023/04/24 04:36:21;;;;;;;;;20.00;18.00;21.20;40.10;;;;;;109899;1252;49535;-58
2023/04/24 04:38:48;;;;;;;;;22.00;20.00;21.20;40.10;;;;;;109894;1252;50718;-57
2023/04/24 04:41:16;;;;;;;;;22.00;18.00;21.20;40.10;;;;;;109905;1253;46672;-56
2023/04/24 04:43:43;;;;;;;;;19.67;18.67;21.20;40.10;;;;;;109902;1254;55469;-58
2023/04/24 04:46:11;;;;;;;;;17.00;16.00;21.20;40.10;;;;;;109899;1252;54669;-57
2023/04/24 04:48:38;;;;;;;;;20.00;18.00;21.20;40.10;;;;;;109895;1254;49032;-57
2023/04/24 04:51:05;;;;;;;;;19.00;17.50;21.20;40.30;;;;;;109070;1252;1212792;-58
2023/04/24 04:53:32;;;;;;;;;20.00;18.50;21.20;40.10;;;;;;109974;1252;45221;-57
2023/04/24 04:55:59;;;;;;;;;25.00;22.00;21.20;40.10;;;;;;109898;1254;55900;-58
2023/04/24 04:58:26;;;;;;;;;22.00;20.00;21.20;40.10;;;;;;109908;1256;54401;-58
2023/04/24 05:00:53;;;;;;;;;22.00;20.00;21.20;40.10;;;;;;109913;1252;50335;-58
2023/04/24 05:03:20;;;;;;;;;17.00;16.00;21.20;40.10;;;;;;109923;1252;50491;-58
2023/04/24 05:05:47;;;;;;;;;20.50;19.00;21.20;40.10;;;;;;110298;1252;45679;-58
2023/04/24 05:08:15;;;;;;;;;23.00;19.00;21.10;40.00;;;;;;109908;1257;56287;-57
2023/04/24 05:10:42;;;;;;;;;21.50;20.50;21.20;40.50;;;;;;109986;1252;53413;-58
2023/04/24 05:13:09;;;;;;;;;21.33;18.33;21.20;40.30;;;;;;109942;1252;48963;-58
2023/04/24 05:15:36;;;;;;;;;21.33;19.67;21.10;40.00;;;;;;109962;1254;48911;-58
2023/04/24 05:18:03;;;;;;;;;19.50;18.50;21.10;40.50;;;;;;110009;1257;47035;-58
2023/04/24 05:20:30;;;;;;;;;20.00;18.50;21.20;40.10;;;;;;109954;1257;56781;-58
2023/04/24 05:22:57;;;;;;;;;18.50;17.00;21.10;40.00;;;;;;110016;1257;53725;-58
2023/04/24 05:25:24;;;;;;;;;21.00;20.00;21.10;40.00;;;;;;110028;1252;49759;-59
2023/04/24 05:27:51;;;;;;;;;24.00;23.00;21.10;40.00;;;;;;109908;1256;49140;-58
2023/04/24 05:30:18;;;;;;;;;22.00;21.00;21.20;40.10;;;;;;109983;1257;45819;-60
2023/04/24 05:32:45;;;;;;;;;22.00;20.00;21.20;40.30;;;;;;109962;1254;55863;-57
2023/04/24 05:35:12;;;;;;;;;22.00;20.00;21.20;40.10;;;;;;109964;1256;54400;-58
2023/04/24 05:37:40;;;;;;;;;22.75;21.25;21.10;40.10;;;;;;109913;1253;49785;-58
2023/04/24 05:40:08;;;;;;;;;26.00;22.00;21.20;40.10;;;;;;109946;1252;50381;-59
2023/04/24 05:42:35;;;;;;;;;24.00;20.00;21.20;40.10;;;;;;109968;1256;46233;-58
2023/04/24 05:45:03;;;;;;;;;23.00;21.00;21.20;40.10;;;;;;109987;1252;55138;-59
2023/04/24 05:47:30;;;;;;;;;22.00;20.00;21.20;40.20;;;;;;109906;1252;53378;-59
2023/04/24 05:49:57;;;;;;;;;25.00;23.50;21.20;40.30;;;;;;109895;1253;49272;-58
2023/04/24 05:52:24;;;;;;;;;20.00;19.00;21.20;40.10;;;;;;110003;1257;49450;-57
2023/04/24 05:54:51;;;;;;;;;23.67;22.00;21.20;40.10;;;;;;109857;1255;45866;-58
2023/04/24 05:57:18;;;;;;;;;19.00;18.00;21.20;40.00;;;;;;110108;1252;55998;-58
2023/04/24 05:59:45;;;;;;;;;25.00;22.00;21.30;40.10;;;;;;109974;1257;54548;-58
2023/04/24 06:02:12;;;;;;;;;23.00;22.00;21.30;40.00;;;;;;109872;1252;49996;-58
2023/04/24 06:04:39;;;;;;;;;22.00;21.00;21.30;40.00;;;;;;109919;1257;49441;-58
2023/04/24 06:07:07;;;;;;;;;19.50;18.00;21.30;40.20;;;;;;109954;1257;46297;-57
2023/04/24 06:09:34;;;;;;;;;21.50;20.50;21.30;40.00;;;;;;109937;1252;55383;-60
2023/04/24 06:12:00;;;;;;;;;23.33;21.33;21.30;40.10;;;;;;109908;1257;54163;-60
2023/04/24 06:14:28;;;;;;;;;21.00;20.00;21.30;39.90;;;;;;109999;1252;49756;-59
2023/04/24 06:16:54;;;;;;;;;20.00;17.00;21.30;39.90;;;;;;110027;1256;51047;-65
2023/04/24 06:19:21;;;;;;;;;21.00;20.00;21.40;40.00;;;;;;109957;1257;46185;-60
2023/04/24 06:21:48;;;;;;;;;21.00;20.00;21.40;40.00;;;;;;110007;1252;55616;-59
2023/04/24 06:24:16;;;;;;;;;21.33;20.00;21.40;39.70;;;;;;109990;1253;53859;-57
2023/04/24 06:26:43;;;;;;;;;21.00;17.00;21.40;40.00;;;;;;109935;1257;49535;-58
2023/04/24 06:29:10;;;;;;;;;20.00;19.00;21.40;39.90;;;;;;109970;1252;49065;-57
2023/04/24 06:31:37;;;;;;;;;21.00;19.00;21.40;39.90;;;;;;109919;1252;45728;-57
2023/04/24 06:34:04;;;;;;;;;21.33;20.00;21.50;40.20;;;;;;109954;1252;56600;-57
2023/04/24 06:36:31;;;;;;;;;20.00;18.00;21.50;40.00;;;;;;109913;1256;54674;-58
2023/04/24 06:38:58;;;;;;;;;21.00;20.00;21.50;39.90;;;;;;109921;1253;49125;-58
2023/04/24 06:41:25;;;;;;;;;18.00;16.00;21.60;39.90;;;;;;109943;1252;49656;-58
2023/04/24 06:43:52;;;;;;;;;20.00;19.00;21.60;39.90;;;;;;110008;1257;45565;-57
2023/04/24 06:46:22;;;;;;;;;21.00;19.00;21.50;39.80;;;;;;109931;1257;55217;-57
2023/04/24 06:48:50;;;;;;;;;24.00;22.00;21.60;39.80;;;;;;109934;1252;54140;-58
2023/04/24 06:51:17;;;;;;;;;25.00;20.00;21.60;39.80;;;;;;110003;1252;50058;-58
2023/04/24 06:53:45;;;;;;;;;21.00;18.00;21.60;39.80;;;;;;109938;1255;49516;-56
2023/04/24 06:56:11;;;;;;;;;18.67;16.33;21.60;39.80;;;;;;109900;1252;45272;-58
2023/04/24 06:58:38;;;;;;;;;21.00;20.00;21.60;39.80;;;;;;109957;1252;55766;-58
2023/04/24 07:01:06;;;;;;;;;19.00;16.50;21.70;39.90;;;;;;110032;1252;54075;-58
2023/04/24 07:03:33;;;;;;;;;17.00;16.00;21.70;39.90;;;;;;109940;1257;49859;-58
2023/04/24 07:06:00;;;;;;;;;22.33;21.00;21.70;39.80;;;;;;109927;1253;49067;-57
2023/04/24 07:08:28;;;;;;;;;24.00;20.00;21.70;39.80;;;;;;109963;1252;45856;-59
2023/04/24 07:10:55;;;;;;;;;20.33;19.00;21.80;39.90;;;;;;109952;1257;56219;-58
2023/04/24 07:13:23;;;;;;;;;21.50;20.00;21.80;39.80;;;;;;109928;1252;55185;-57
2023/04/24 07:15:52;;;;;;;;;21.33;18.67;21.80;39.80;;;;;;109973;1252;50083;-58
2023/04/24 07:18:20;;;;;;;;;23.00;21.00;21.90;39.90;;;;;;109974;1256;48995;-57
2023/04/24 07:20:47;;;;;;;;;17.00;16.00;21.90;39.90;;;;;;110019;1256;45931;-58
2023/04/24 07:23:14;;;;;;;;;20.00;18.00;21.90;39.30;;;;;;109958;1252;55806;-57
2023/04/24 07:25:41;;;;;;;;;20.00;19.00;21.90;39.70;;;;;;110009;1255;53587;-58
2023/04/24 07:28:08;;;;;;;;;18.00;16.00;22.00;39.70;;;;;;110018;1252;48958;-59
2023/04/24 07:30:35;;;;;;;;;23.00;21.00;22.00;40.10;;;;;;109906;1255;48977;-58
2023/04/24 07:33:02;;;;;;;;;18.67;15.67;22.00;39.60;;;;;;109958;1252;46149;-58
2023/04/24 07:35:29;;;;;;;;;18.00;16.50;22.10;39.60;;;;;;109933;1257;55183;-58
2023/04/24 07:37:56;;;;;;;;;20.00;18.00;22.10;39.80;;;;;;109983;1252;54961;-58
2023/04/24 07:40:23;;;;;;;;;20.67;17.33;22.10;39.50;;;;;;110000;1255;49962;-59
2023/04/24 07:42:50;;;;;;;;;18.67;17.67;22.10;39.50;;;;;;109862;1257;49666;-57
2023/04/24 07:45:17;;;;;;;;;20.00;18.67;22.20;39.80;;;;;;109949;1257;45353;-57
2023/04/24 07:47:45;;;;;;;;;19.00;18.00;22.10;39.30;;;;;;109966;1252;55942;-58
2023/04/24 07:50:12;;;;;;;;;23.50;20.00;22.20;39.70;;;;;;109937;1257;54161;-60
2023/04/24 07:52:39;;;;;;;;;20.00;16.50;22.20;39.40;;;;;;109970;1255;49384;-59
2023/04/24 07:55:07;;;;;;;;;22.00;20.00;22.20;39.40;;;;;;110015;1256;49707;-58
2023/04/24 07:57:34;;;;;;;;;22.00;21.00;22.20;39.60;;;;;;109923;1257;45752;-57
2023/04/24 08:00:03;;;;;;;;;21.00;18.00;22.30;39.40;;;;;;110045;1256;55681;-57
2023/04/24 08:02:30;;;;;;;;;22.00;19.50;22.20;39.40;;;;;;109905;1254;54406;-58
2023/04/24 08:04:58;;;;;;;;;20.00;19.00;22.30;39.40;;;;;;109960;1252;48921;-59
2023/04/24 08:07:24;;;;;;;;;20.00;19.00;22.30;39.60;;;;;;109910;1255;49319;-58
2023/04/24 08:09:52;;;;;;;;;21.33;17.00;22.30;39.60;;;;;;109865;1257;45944;-57
2023/04/24 08:12:19;;;;;;;;;20.50;17.50;22.30;39.00;;;;;;109871;1252;55193;-58
2023/04/24 08:14:45;;;;;;;;;21.50;18.50;22.40;39.40;;;;;;109952;1257;53957;-59
2023/04/24 08:17:12;;;;;;;;;20.00;18.00;22.40;39.40;;;;;;109914;1252;49693;-59
2023/04/24 08:19:47;;;;;;;;;21.00;20.00;22.50;39.40;;;;;;109949;1253;49608;-58
2023/04/24 08:22:15;;;;;;;;;17.00;16.00;22.50;39.40;;;;;;109921;1252;46026;-59
2023/04/24 08:24:42;;;;;;;;;21.00;19.00;22.50;39.30;;;;;;109996;1255;55526;-58
2023/04/24 08:27:10;;;;;;;;;22.00;18.00;22.60;39.90;;;;;;109940;1258;54135;-58
2023/04/24 08:29:37;;;;;;;;;21.00;18.00;22.60;39.30;;;;;;109929;1255;49840;-58
2023/04/24 08:32:04;;;;;;;;;17.50;16.50;22.70;39.50;;;;;;109861;1253;50190;-59
2023/04/24 08:34:30;;;;;;;;;17.00;16.00;22.70;39.30;;;;;;109955;1252;46004;-58
2023/04/24 08:36:57;;;;;;;;;21.00;19.00;22.70;39.20;;;;;;110003;1252;55914;-58
2023/04/24 08:39:24;;;;;;;;;22.00;19.00;22.70;39.20;;;;;;109964;1257;53561;-58
2023/04/24 08:41:52;;;;;;;;;23.67;20.33;22.80;39.20;;;;;;109933;1254;49582;-58
2023/04/24 08:44:20;;;;;;;;;19.00;18.00;22.80;39.20;;;;;;110041;1252;49708;-58
2023/04/24 08:46:48;;;;;;;;;17.50;16.00;22.80;39.10;;;;;;109881;1257;46794;-59
2023/04/24 08:49:18;;;;;;;;;21.00;20.00;22.90;39.10;;;;;;109932;1257;56592;-58
2023/04/24 08:51:47;;;;;;;;;20.33;19.00;22.90;39.10;;;;;;110017;1256;54190;-58
2023/04/24 08:54:14;;;;;;;;;22.50;18.50;23.00;39.30;;;;;;109934;1252;49128;-58
2023/04/24 08:56:43;;;;;;;;;21.50;20.50;23.00;39.00;;;;;;109990;1256;49830;-58
2023/04/24 08:59:11;;;;;;;;;19.50;18.50;23.10;39.00;;;;;;109992;1252;45260;-59
2023/04/24 09:01:39;;;;;;;;;17.50;16.00;23.10;39.20;;;;;;110041;1256;55139;-59
2023/04/24 09:04:12;;;;;;;;;18.00;17.00;23.10;39.00;;;;;;109998;1252;54042;-58
2023/04/24 09:06:40;;;;;;;;;20.50;19.50;23.10;39.00;;;;;;110023;1255;50023;-57
2023/04/24 09:09:07;;;;;;;;;21.00;20.00;23.20;39.00;;;;;;109845;1258;49397;-59
2023/04/24 09:11:34;;;;;;;;;20.33;18.67;23.20;38.90;;;;;;109898;1255;45886;-59
2023/04/24 09:14:01;;;;;;;;;19.00;18.00;23.20;38.90;;;;;;109943;1252;55056;-58
2023/04/24 09:16:29;;;;;;;;;19.00;17.50;23.30;38.90;;;;;;109940;1253;54085;-58
2023/04/24 09:18:56;;;;;;;;;23.00;21.75;23.30;38.40;;;;;;109951;1257;48963;-58
2023/04/24 09:21:23;;;;;;;;;18.50;17.00;23.30;38.90;;;;;;109995;1252;49898;-58
2023/04/24 09:24:04;;;;;;;;;19.00;18.00;23.40;39.00;;;;;;110017;1256;45322;-58
2023/04/24 09:26:34;;;;;;;;;19.00;18.00;23.30;39.10;;;;;;109920;1256;56202;-59
2023/04/24 09:29:03;;;;;;;;;21.00;19.00;23.40;39.00;;;;;;109929;1252;53382;-58
2023/04/24 09:31:30;;;;;;;;;19.67;19.00;23.40;38.90;;;;;;109916;1254;49106;-57
2023/04/24 09:34:03;;;;;;;;;20.50;17.00;23.40;38.90;;;;;;109926;1256;49549;-57
2023/04/24 09:36:42;;;;;;;;;20.00;19.00;23.40;38.90;;;;;;109914;1257;45801;-57
2023/04/24 09:39:17;;;;;;;;;21.00;20.00;23.40;38.90;;;;;;109929;1257;55571;-57
2023/04/24 09:41:51;;;;;;;;;18.00;17.00;23.40;38.80;;;;;;109956;1257;54497;-58
2023/04/24 09:44:20;;;;;;;;;20.00;19.00;23.40;38.80;;;;;;109949;1257;49649;-58
2023/04/24 09:46:56;;;;;;;;;19.50;18.50;23.50;39.10;;;;;;110073;1252;49641;-59
2023/04/24 09:49:24;;;;;;;;;24.00;20.00;23.50;39.10;;;;;;109971;1253;46041;-57
2023/04/24 09:51:52;;;;;;;;;18.33;17.67;23.50;39.10;;;;;;109911;1254;55466;-58
2023/04/24 09:54:21;;;;;;;;;19.00;17.00;23.50;38.90;;;;;;109983;1254;53887;-58
2023/04/24 09:56:50;;;;;;;;;20.00;19.00;23.40;38.80;;;;;;109971;1252;50175;-58
2023/04/24 09:59:18;;;;;;;;;20.67;19.67;23.40;38.90;;;;;;109966;1252;50092;-58
2023/04/24 10:01:48;;;;;;;;;19.00;17.00;23.40;38.90;;;;;;110060;1252;45909;-58
2023/04/24 10:04:20;;;;;;;;;21.67;19.33;23.40;38.90;;;;;;110003;1254;56715;-58
2023/04/24 10:06:48;;;;;;;;;19.50;18.50;23.50;39.00;;;;;;109983;1252;54751;-59
2023/04/24 10:09:20;;;;;;;;;18.00;17.00;23.40;38.90;;;;;;109998;1252;49338;-58
2023/04/24 10:11:50;;;;;;;;;24.00;20.50;23.50;38.90;;;;;;109921;1254;49802;-58
2023/04/24 10:14:23;;;;;;;;;21.00;18.50;23.50;39.00;;;;;;110067;1255;46180;-58
2023/04/24 10:16:53;;;;;;;;;22.00;21.00;23.40;38.90;;;;;;110062;1257;56579;-58
2023/04/24 10:19:20;;;;;;;;;20.00;19.00;23.50;38.90;;;;;;110034;1252;54517;-58
2023/04/24 10:21:47;;;;;;;;;20.67;19.67;23.50;38.90;;;;;;109946;1252;49351;-58
2023/04/24 10:24:16;;;;;;;;;19.00;18.00;23.50;39.20;;;;;;109937;1255;49711;-58
2023/04/24 10:26:44;;;;;;;;;18.75;17.75;23.50;39.00;;;;;;109978;1256;46562;-57
2023/04/24 10:29:12;;;;;;;;;19.00;18.00;23.40;38.90;;;;;;109933;1252;55424;-59
2023/04/24 10:31:40;;;;;;;;;18.50;16.00;23.40;39.10;;;;;;109981;1257;54069;-58
2023/04/24 10:34:09;;;;;;;;;20.67;18.33;23.40;39.20;;;;;;109934;1254;49849;-57
2023/04/24 10:36:40;;;;;;;;;20.33;19.33;23.40;38.90;;;;;;109971;1252;50234;-58
2023/04/24 10:39:10;;;;;;;;;22.00;20.00;23.40;38.90;;;;;;109929;1256;46227;-57
2023/04/24 10:41:38;;;;;;;;;23.00;19.00;23.40;38.90;;;;;;110002;1254;56259;-60
2023/04/24 10:44:08;;;;;;;;;22.67;20.67;23.40;39.00;;;;;;109915;1252;54470;-58
2023/04/24 10:46:37;;;;;;;;;22.00;21.00;23.40;39.00;;;;;;109928;1256;49137;-58
2023/04/24 10:49:11;;;;;;;;;16.00;15.00;23.40;39.00;;;;;;109898;1254;49185;-57
2023/04/24 10:51:48;;;;;;;;;17.33;16.33;23.40;39.00;;;;;;109922;1257;45765;-58
2023/04/24 10:54:33;;;;;;;;;20.00;18.00;23.40;39.00;;;;;;109980;1252;55685;-57
2023/04/24 10:57:22;;;;;;;;;19.00;17.50;23.40;39.30;;;;;;109867;1256;53848;-57
2023/04/24 10:59:51;;;;;;;;;19.50;18.50;23.40;39.00;;;;;;109937;1256;49011;-59
2023/04/24 11:02:18;;;;;;;;;19.00;18.00;23.40;39.00;;;;;;109975;1256;49172;-58
2023/04/24 11:04:46;;;;;;;;;18.00;17.00;23.40;39.00;;;;;;109869;1253;45191;-58
2023/04/24 11:07:13;;;;;;;;;18.00;16.50;23.50;39.10;;;;;;109890;1256;55677;-58
2023/04/24 11:09:42;;;;;;;;;22.33;19.33;23.50;39.30;;;;;;109973;1252;53882;-57
2023/04/24 11:12:10;;;;;;;;;24.00;21.50;23.50;39.10;;;;;;110092;1256;49023;-57
2023/04/24 11:14:56;;;;;;;;;19.00;17.00;23.40;39.00;;;;;;110033;1257;49471;-58
2023/04/24 11:17:37;;;;;;;;;21.00;20.00;23.50;39.40;;;;;;109903;1257;46446;-57
2023/04/24 11:20:09;;;;;;;;;18.50;18.00;23.50;39.10;;;;;;109979;1257;57206;-57
2023/04/24 11:22:39;;;;;;;;;18.50;17.50;23.50;39.10;;;;;;109898;1257;53796;-58
2023/04/24 11:25:07;;;;;;;;;20.00;19.00;23.50;39.10;;;;;;109971;1257;50654;-57
2023/04/24 11:27:42;;;;;;;;;18.00;17.00;23.50;39.20;;;;;;109936;1257;49544;-57
2023/04/24 11:30:10;;;;;;;;;23.00;21.00;23.50;39.10;;;;;;109958;1253;46008;-58
2023/04/24 11:32:43;;;;;;;;;19.00;17.00;23.50;39.10;;;;;;109948;1256;55317;-60
2023/04/24 11:35:19;;;;;;;;;19.00;18.50;23.50;39.10;;;;;;109877;1257;53892;-56
2023/04/24 11:37:50;;;;;;;;;21.50;18.50;23.50;39.20;;;;;;110018;1257;49544;-58
2023/04/24 11:40:20;;;;;;;;;20.00;18.00;23.50;39.70;;;;;;109923;1255;49752;-58
2023/04/24 11:42:48;;;;;;;;;18.00;17.00;23.50;39.10;;;;;;109930;1254;46617;-58
2023/04/24 11:45:16;;;;;;;;;20.00;17.50;23.50;39.10;;;;;;109905;1257;56174;-58
2023/04/24 11:47:43;;;;;;;;;21.00;17.50;23.50;39.20;;;;;;109900;1256;53359;-57
2023/04/24 11:50:12;;;;;;;;;20.00;19.00;23.50;39.20;;;;;;109906;1256;49369;-57
2023/04/24 11:52:42;;;;;;;;;26.50;21.00;23.50;39.20;;;;;;109989;1256;50091;-57
2023/04/24 11:55:14;;;;;;;;;19.00;17.00;23.50;39.20;;;;;;110035;1252;45473;-58
2023/04/24 11:57:49;;;;;;;;;21.00;20.00;23.50;39.30;;;;;;109945;1252;56466;-58
2023/04/24 12:00:26;;;;;;;;;20.67;18.67;23.50;39.20;;;;;;109941;1256;54786;-58
2023/04/24 12:03:07;;;;;;;;;21.00;19.00;23.50;39.20;;;;;;109972;1255;50381;-57
2023/04/24 12:05:34;;;;;;;;;18.50;17.25;23.50;39.20;;;;;;109950;1252;49609;-57
2023/04/24 12:08:02;;;;;;;;;18.00;16.00;23.50;39.20;;;;;;109928;1256;46071;-57
2023/04/24 12:10:31;;;;;;;;;20.00;18.00;23.50;39.20;;;;;;109943;1256;55347;-58
2023/04/24 12:12:59;;;;;;;;;24.00;20.50;23.50;39.30;;;;;;109974;1252;54324;-57
2023/04/24 12:15:27;;;;;;;;;23.00;20.00;23.50;39.20;;;;;;109962;1252;49573;-57
2023/04/24 12:17:55;;;;;;;;;21.00;20.00;23.40;39.10;;;;;;109892;1257;49261;-58
2023/04/24 12:20:28;;;;;;;;;19.00;18.00;23.50;39.40;;;;;;109914;1252;46877;-58
2023/04/24 12:22:57;;;;;;;;;21.00;19.00;23.50;39.20;;;;;;109997;1255;55890;-57